createdAt,value
2023-04-18T00:02:33.586Z,21.85
2023-04-18T00:05:30.718Z,20.58
2023-04-18T00:08:28.413Z,18.48
2023-04-18T00:11:25.297Z,20.98
2023-04-18T00:14:23.126Z,17.83
2023-04-18T00:17:21.126Z,19.30
2023-04-18T00:20:17.990Z,21.45
2023-04-18T00:23:14.930Z,20.92
2023-04-18T00:26:12.085Z,18.73
2023-04-18T00:29:08.920Z,22.05
2023-04-18T00:32:06.141Z,22.38
2023-04-18T00:35:04.076Z,19.85
2023-04-18T00:38:00.924Z,22.10
2023-04-18T00:40:57.772Z,19.52
2023-04-18T00:43:55.255Z,17.73
2023-04-18T00:46:52.086Z,19.52
2023-04-18T00:49:49.275Z,19.90
2023-04-18T00:52:46.970Z,17.30
2023-04-18T00:55:44.110Z,20.10
2023-04-18T00:58:41.180Z,18.60
2023-04-18T01:01:40.143Z,18.17
2023-04-18T01:04:37.374Z,13.55
2023-04-18T01:07:38.032Z,19.02
2023-04-18T01:10:36.921Z,20.90
2023-04-18T01:13:33.766Z,19.52
2023-04-18T01:16:34.814Z,19.38
2023-04-18T01:19:31.753Z,21.52
2023-04-18T01:22:30.870Z,20.38
2023-04-18T01:25:27.692Z,19.80
2023-04-18T01:28:27.546Z,19.50
2023-04-18T01:31:24.459Z,22.07
2023-04-18T01:34:21.366Z,22.65
2023-04-18T01:37:18.165Z,21.35
2023-04-18T01:40:15.165Z,20.23
2023-04-18T01:43:13.033Z,21.23
2023-04-18T01:46:09.911Z,19.02
2023-04-18T01:49:08.231Z,17.17
2023-04-18T01:52:05.048Z,19.80
2023-04-18T01:55:02.305Z,19.40
2023-04-18T01:57:59.133Z,19.63
2023-04-18T02:00:58.852Z,21.05
2023-04-18T02:03:56.033Z,22.75
2023-04-18T02:06:53.168Z,20.88
2023-04-18T02:09:49.986Z,20.35
2023-04-18T02:12:46.974Z,18.58
2023-04-18T02:15:46.598Z,19.40
2023-04-18T02:18:43.788Z,17.52
2023-04-18T02:21:41.863Z,16.15
2023-04-18T02:24:38.677Z,17.20
2023-04-18T02:27:35.582Z,20.45
2023-04-18T02:30:32.490Z,19.08
2023-04-18T02:33:29.300Z,17.77
2023-04-18T02:36:28.041Z,18.50
2023-04-18T02:39:24.883Z,18.20
2023-04-18T02:42:21.723Z,17.60
2023-04-18T02:45:18.667Z,18.42
2023-04-18T02:48:15.683Z,16.10
2023-04-18T02:51:12.583Z,15.07
2023-04-18T02:54:09.402Z,17.98
2023-04-18T02:57:06.221Z,15.93
2023-04-18T03:00:03.433Z,16.75
2023-04-18T03:03:00.574Z,20.98
2023-04-18T03:05:57.464Z,16.90
2023-04-18T03:08:55.839Z,21.55
2023-04-18T03:11:52.728Z,18.40
2023-04-18T03:14:49.562Z,19.42
2023-04-18T03:17:46.409Z,14.80
2023-04-18T03:20:43.282Z,12.50
2023-04-18T03:23:40.349Z,15.45
2023-04-18T03:26:37.173Z,16.55
2023-04-18T03:29:34.174Z,18.23
2023-04-18T03:32:33.995Z,14.60
2023-04-18T03:35:31.271Z,14.17
2023-04-18T03:38:28.268Z,16.23
2023-04-18T03:41:25.235Z,13.45
2023-04-18T03:44:22.060Z,14.93
2023-04-18T03:47:18.901Z,14.90
2023-04-18T03:50:16.498Z,19.23
2023-04-18T03:53:14.389Z,15.55
2023-04-18T03:56:11.296Z,19.60
2023-04-18T03:59:08.283Z,20.60
2023-04-18T04:02:05.174Z,23.90
2023-04-18T04:05:02.663Z,21.38
2023-04-18T04:07:59.644Z,13.80
2023-04-18T04:10:56.461Z,18.92
2023-04-18T04:13:53.388Z,13.07
2023-04-18T04:16:51.639Z,14.40
2023-04-18T04:19:50.515Z,10.52
2023-04-18T04:22:47.383Z,12.88
2023-04-18T04:25:46.324Z,12.80
2023-04-18T04:28:44.805Z,11.82
2023-04-18T04:31:41.681Z,14.55
2023-04-18T04:34:41.305Z,11.02
2023-04-18T04:37:38.668Z,10.20
2023-04-18T04:40:35.509Z,9.63
2023-04-18T04:43:32.850Z,9.38
2023-04-18T04:46:30.553Z,9.35
2023-04-18T04:49:27.349Z,9.48
2023-04-18T04:52:24.220Z,9.52
2023-04-18T04:55:21.326Z,9.98
2023-04-18T04:58:18.692Z,8.48
2023-04-18T05:01:16.794Z,8.27
2023-04-18T05:04:14.016Z,7.60
2023-04-18T05:07:11.371Z,7.32
2023-04-18T05:10:08.604Z,6.68
2023-04-18T05:13:05.499Z,6.20
2023-04-18T05:16:02.818Z,7.50
2023-04-18T05:18:59.673Z,7.72
2023-04-18T05:21:56.641Z,8.00
2023-04-18T05:24:53.451Z,6.32
2023-04-18T05:27:51.037Z,6.07
2023-04-18T05:30:47.934Z,7.57
2023-04-18T05:33:44.772Z,6.20
2023-04-18T05:36:41.605Z,6.28
2023-04-18T05:39:38.409Z,11.75
2023-04-18T05:42:35.232Z,15.20
2023-04-18T05:45:32.083Z,8.60
2023-04-18T05:48:28.964Z,7.20
2023-04-18T05:51:26.712Z,7.80
2023-04-18T05:54:25.171Z,7.70
2023-04-18T05:57:21.997Z,7.03
2023-04-18T06:00:20.077Z,5.90
2023-04-18T06:03:17.174Z,7.03
2023-04-18T06:06:14.481Z,7.57
2023-04-18T06:09:11.496Z,7.75
2023-04-18T06:12:08.324Z,8.32
2023-04-18T06:15:05.910Z,5.93
2023-04-18T06:18:02.856Z,7.38
2023-04-18T06:20:59.893Z,6.72
2023-04-18T06:23:56.751Z,4.70
2023-04-18T06:26:55.187Z,6.18
2023-04-18T06:29:51.998Z,7.53
2023-04-18T06:32:48.983Z,4.10
2023-04-18T06:35:46.252Z,6.53
2023-04-18T06:38:43.110Z,5.38
2023-04-18T06:41:39.919Z,4.75
2023-04-18T06:44:36.717Z,4.72
2023-04-18T06:47:33.680Z,5.65
2023-04-18T06:50:30.596Z,8.00
2023-04-18T06:53:27.429Z,6.25
2023-04-18T06:56:24.372Z,8.85
2023-04-18T06:59:21.582Z,7.75
2023-04-18T07:02:18.541Z,8.15
2023-04-18T07:05:15.527Z,7.75
2023-04-18T07:08:12.376Z,8.40
2023-04-18T07:11:09.233Z,7.90
2023-04-18T07:14:06.069Z,8.98
2023-04-18T07:17:03.132Z,8.43
2023-04-18T07:19:59.977Z,9.52
2023-04-18T07:22:56.784Z,10.30
2023-04-18T07:25:53.682Z,10.18
2023-04-18T07:28:50.551Z,9.20
2023-04-18T07:31:47.793Z,11.15
2023-04-18T07:34:44.989Z,9.90
2023-04-18T07:37:41.925Z,8.25
2023-04-18T07:40:38.823Z,8.88
2023-04-18T07:43:35.943Z,13.05
2023-04-18T07:46:33.988Z,10.80
2023-04-18T07:49:30.874Z,10.90
2023-04-18T07:52:27.728Z,10.52
2023-04-18T07:55:24.570Z,13.90
2023-04-18T07:58:21.681Z,11.35
2023-04-18T08:01:20.933Z,12.75
2023-04-18T08:04:17.932Z,15.65
2023-04-18T08:07:14.873Z,11.95
2023-04-18T08:10:11.800Z,11.63
2023-04-18T08:13:08.794Z,15.27
2023-04-18T08:16:06.071Z,13.85
2023-04-18T08:19:03.171Z,14.07
2023-04-18T08:22:10.626Z,15.02
2023-04-18T08:25:08.019Z,14.90
2023-04-18T08:28:05.170Z,16.25
2023-04-18T08:31:02.129Z,18.52
2023-04-18T08:33:58.934Z,17.13
2023-04-18T08:36:56.612Z,20.60
2023-04-18T08:39:53.645Z,21.10
2023-04-18T08:42:52.860Z,22.27
2023-04-18T08:45:49.968Z,23.27
2023-04-18T08:48:51.271Z,22.98
2023-04-18T08:51:53.977Z,21.67
2023-04-18T08:54:51.913Z,22.10
2023-04-18T08:57:50.371Z,19.95
2023-04-18T09:00:52.053Z,19.13
2023-04-18T09:03:48.904Z,24.33
2023-04-18T09:06:53.138Z,25.95
2023-04-18T09:09:54.829Z,28.73
2023-04-18T09:12:52.112Z,27.30
2023-04-18T09:15:56.146Z,28.30
2023-04-18T09:19:17.969Z,26.95
2023-04-18T09:22:17.035Z,26.50
2023-04-18T09:25:44.480Z,25.67
2023-04-18T09:28:41.739Z,22.83
2023-04-18T09:31:54.878Z,26.50
2023-04-18T09:34:57.940Z,24.88
2023-04-18T09:37:55.103Z,24.63
2023-04-18T09:41:11.864Z,24.38
2023-04-18T09:44:15.089Z,23.15
2023-04-18T09:47:12.451Z,24.48
2023-04-18T09:50:10.643Z,19.80
2023-04-18T09:53:08.667Z,26.23
2023-04-18T09:56:09.662Z,24.73
2023-04-18T09:59:12.141Z,26.13
2023-04-18T10:02:22.100Z,24.88
2023-04-18T10:05:23.227Z,28.33
2023-04-18T10:08:20.707Z,25.63
2023-04-18T10:11:19.193Z,23.33
2023-04-18T10:14:18.162Z,22.23
2023-04-18T10:17:16.046Z,23.73
2023-04-18T10:20:20.293Z,26.08
2023-04-18T10:23:32.371Z,27.23
2023-04-18T10:26:50.347Z,24.83
2023-04-18T10:29:54.058Z,25.42
2023-04-18T10:32:55.540Z,25.48
2023-04-18T10:36:12.300Z,22.70
2023-04-18T10:39:22.388Z,22.00
2023-04-18T10:42:19.327Z,21.20
2023-04-18T10:45:22.784Z,19.88
2023-04-18T10:48:29.918Z,21.02
2023-04-18T10:51:26.835Z,20.20
2023-04-18T10:54:48.882Z,16.92
2023-04-18T10:57:50.471Z,21.13
2023-04-18T11:00:51.470Z,17.23
2023-04-18T11:03:48.470Z,21.30
2023-04-18T11:06:50.218Z,17.35
2023-04-18T11:09:56.937Z,15.68
2023-04-18T11:12:55.311Z,15.70
2023-04-18T11:15:52.281Z,17.42
2023-04-18T11:18:49.247Z,15.02
2023-04-18T11:21:46.169Z,14.52
2023-04-18T11:24:43.848Z,16.73
2023-04-18T11:27:45.859Z,17.70
2023-04-18T11:30:43.063Z,17.73
2023-04-18T11:33:39.884Z,15.93
2023-04-18T11:36:38.523Z,14.48
2023-04-18T11:39:41.425Z,13.35
2023-04-18T11:42:39.882Z,15.35
2023-04-18T11:45:36.819Z,18.40
2023-04-18T11:48:42.121Z,18.73
2023-04-18T11:51:39.000Z,19.75
2023-04-18T11:54:43.625Z,17.80
2023-04-18T11:57:40.861Z,16.13
2023-04-18T12:00:44.109Z,13.65
2023-04-18T12:03:41.601Z,15.20
2023-04-18T12:06:53.430Z,18.65
2023-04-18T12:09:52.729Z,17.30
2023-04-18T12:12:54.919Z,17.05
2023-04-18T12:15:52.120Z,18.08
2023-04-18T12:18:48.944Z,20.45
2023-04-18T12:22:00.778Z,18.13
2023-04-18T12:25:23.528Z,18.75
2023-04-18T12:28:25.788Z,20.40
2023-04-18T12:31:22.754Z,20.23
2023-04-18T12:34:19.744Z,25.20
2023-04-18T12:37:16.587Z,19.58
2023-04-18T12:40:14.210Z,20.48
2023-04-18T12:43:11.208Z,22.85
2023-04-18T12:46:08.077Z,22.67
2023-04-18T12:49:04.924Z,23.23
2023-04-18T12:52:01.849Z,23.48
2023-04-18T12:54:58.779Z,22.83
2023-04-18T12:57:56.474Z,22.65
2023-04-18T13:00:53.330Z,17.67
2023-04-18T13:03:59.844Z,17.95
2023-04-18T13:07:06.148Z,18.20
2023-04-18T13:10:03.004Z,19.02
2023-04-18T13:12:59.923Z,27.55
2023-04-18T13:15:56.741Z,21.40
2023-04-18T13:18:53.660Z,18.50
2023-04-18T13:21:50.742Z,18.80
2023-04-18T13:24:48.162Z,18.70
2023-04-18T13:27:45.891Z,21.58
2023-04-18T13:30:42.718Z,19.88
2023-04-18T13:33:40.391Z,18.67
2023-04-18T13:36:37.224Z,22.92
2023-04-18T13:39:34.377Z,23.73
2023-04-18T13:42:32.046Z,24.42
2023-04-18T13:45:28.914Z,20.38
2023-04-18T13:48:25.778Z,16.63
2023-04-18T13:51:22.590Z,19.63
2023-04-18T13:54:20.157Z,19.58
2023-04-18T13:57:17.016Z,23.05
2023-04-18T14:00:15.094Z,26.80
2023-04-18T14:03:12.604Z,29.92
2023-04-18T14:06:09.533Z,23.60
2023-04-18T14:09:09.340Z,35.13
2023-04-18T14:12:06.911Z,23.13
2023-04-18T14:15:04.330Z,20.88
2023-04-18T14:18:01.374Z,20.15
2023-04-18T14:20:58.298Z,31.67
2023-04-18T14:23:55.456Z,79.35
2023-04-18T14:26:52.294Z,20.85
2023-04-18T14:29:49.386Z,44.80
2023-04-18T14:32:46.243Z,39.08
2023-04-18T14:35:43.902Z,20.70
2023-04-18T14:38:41.221Z,19.77
2023-04-18T14:41:38.167Z,23.40
2023-04-18T14:44:35.038Z,17.63
2023-04-18T14:47:34.569Z,19.05
2023-04-18T14:50:31.742Z,28.55
2023-04-18T14:53:28.645Z,30.15
2023-04-18T14:56:25.521Z,27.08
2023-04-18T14:59:22.539Z,25.98
2023-04-18T15:02:19.455Z,25.65
2023-04-18T15:05:17.783Z,30.98
2023-04-18T15:08:16.048Z,21.77
2023-04-18T15:11:13.617Z,34.70
2023-04-18T15:14:10.687Z,22.02
2023-04-18T15:17:07.549Z,26.55
2023-04-18T15:20:07.170Z,30.08
2023-04-18T15:23:04.176Z,24.23
2023-04-18T15:26:01.077Z,23.30
2023-04-18T15:28:57.888Z,23.27
2023-04-18T15:31:54.976Z,23.05
2023-04-18T15:34:51.875Z,22.02
2023-04-18T15:37:49.241Z,22.10
2023-04-18T15:40:46.229Z,22.67
2023-04-18T15:43:43.286Z,25.75
2023-04-18T15:46:40.232Z,24.55
2023-04-18T15:49:37.161Z,22.77
2023-04-18T15:52:34.095Z,24.77
2023-04-18T15:55:30.902Z,23.58
2023-04-18T15:58:30.205Z,24.15
2023-04-18T16:01:27.400Z,22.85
2023-04-18T16:04:24.375Z,21.92
2023-04-18T16:07:21.314Z,23.17
2023-04-18T16:10:18.202Z,20.55
2023-04-18T16:13:15.298Z,21.05
2023-04-18T16:16:12.344Z,22.55
2023-04-18T16:19:09.515Z,22.30
2023-04-18T16:22:07.346Z,20.23
2023-04-18T16:25:04.991Z,21.48
2023-04-18T16:28:01.947Z,19.55
2023-04-18T16:30:58.814Z,27.38
2023-04-18T16:33:56.010Z,26.00
2023-04-18T16:36:54.524Z,27.08
2023-04-18T16:39:52.356Z,19.65
2023-04-18T16:42:49.195Z,22.40
2023-04-18T16:45:45.999Z,28.35
2023-04-18T16:48:44.584Z,27.70
2023-04-18T16:51:41.473Z,22.88
2023-04-18T16:54:38.305Z,26.58
2023-04-18T16:57:35.114Z,25.67
2023-04-18T17:00:31.973Z,22.90
2023-04-18T17:03:28.989Z,22.45
2023-04-18T17:06:27.204Z,18.73
2023-04-18T17:09:24.284Z,17.38
2023-04-18T17:12:21.627Z,20.38
2023-04-18T17:15:19.350Z,19.33
2023-04-18T17:18:16.194Z,20.25
2023-04-18T17:21:15.858Z,17.75
2023-04-18T17:24:12.697Z,17.85
2023-04-18T17:27:09.639Z,17.67
2023-04-18T17:30:07.486Z,16.00
2023-04-18T17:33:04.378Z,17.48
2023-04-18T17:36:01.284Z,16.23
2023-04-18T17:39:06.361Z,17.23
2023-04-18T17:42:03.413Z,17.25
2023-04-18T17:45:03.485Z,15.52
2023-04-18T17:48:02.959Z,16.20
2023-04-18T17:50:59.902Z,15.85
2023-04-18T17:53:56.847Z,15.52
2023-04-18T17:56:53.663Z,14.23
2023-04-18T17:59:50.599Z,14.18
2023-04-18T18:02:47.771Z,13.70
2023-04-18T18:05:49.251Z,15.20
2023-04-18T18:08:46.110Z,15.68
2023-04-18T18:11:42.952Z,19.83
2023-04-18T18:14:40.551Z,21.88
2023-04-18T18:17:37.443Z,23.40
2023-04-18T18:20:34.378Z,13.60
2023-04-18T18:23:31.347Z,18.25
2023-04-18T18:26:28.173Z,16.90
2023-04-18T18:29:25.203Z,20.98
2023-04-18T18:32:22.103Z,18.95
2023-04-18T18:35:19.039Z,17.73
2023-04-18T18:38:15.872Z,19.15
2023-04-18T18:41:12.700Z,19.83
2023-04-18T18:44:09.572Z,20.35
2023-04-18T18:47:06.449Z,21.75
2023-04-18T18:50:03.865Z,21.20
2023-04-18T18:53:01.894Z,20.50
2023-04-18T18:55:58.742Z,17.67
2023-04-18T18:58:55.623Z,16.38
2023-04-18T19:01:52.499Z,16.55
2023-04-18T19:04:49.553Z,19.65
2023-04-18T19:07:46.626Z,15.48
2023-04-18T19:10:43.469Z,16.45
2023-04-18T19:13:40.397Z,26.17
2023-04-18T19:16:37.408Z,19.98
2023-04-18T19:19:34.455Z,22.58
2023-04-18T19:22:31.267Z,20.83
2023-04-18T19:25:28.174Z,22.65
2023-04-18T19:28:25.810Z,27.58
2023-04-18T19:31:22.657Z,22.00
2023-04-18T19:34:19.573Z,22.60
2023-04-18T19:37:16.384Z,29.02
2023-04-18T19:40:14.159Z,16.58
2023-04-18T19:43:11.080Z,18.02
2023-04-18T19:46:08.256Z,20.52
2023-04-18T19:49:05.110Z,19.17
2023-04-18T19:52:02.025Z,26.77
2023-04-18T19:54:58.848Z,20.88
2023-04-18T19:57:56.724Z,22.50
2023-04-18T20:00:53.564Z,21.65
2023-04-18T20:03:50.560Z,20.27
2023-04-18T20:06:47.485Z,20.27
2023-04-18T20:09:44.304Z,19.25
2023-04-18T20:12:41.133Z,19.70
2023-04-18T20:15:37.958Z,17.98
2023-04-18T20:18:37.779Z,17.70
2023-04-18T20:21:34.589Z,18.88
2023-04-18T20:24:40.070Z,14.65
2023-04-18T20:27:36.907Z,14.63
2023-04-18T20:30:36.117Z,14.45
2023-04-18T20:33:33.269Z,13.75
2023-04-18T20:36:30.345Z,13.02
2023-04-18T20:39:28.034Z,15.40
2023-04-18T20:42:24.872Z,15.38
2023-04-18T20:45:22.879Z,15.60
2023-04-18T20:48:21.211Z,14.30
2023-04-18T20:51:18.098Z,16.73
2023-04-18T20:54:15.242Z,16.73
2023-04-18T20:57:12.354Z,14.40
2023-04-18T21:00:10.473Z,18.33
2023-04-18T21:03:07.853Z,16.27
2023-04-18T21:06:04.922Z,14.23
2023-04-18T21:09:01.727Z,14.02
2023-04-18T21:11:58.645Z,14.30
2023-04-18T21:14:55.489Z,15.30
2023-04-18T21:17:52.541Z,15.27
2023-04-18T21:20:50.088Z,15.10
2023-04-18T21:23:46.908Z,13.27
2023-04-18T21:26:43.726Z,12.52
2023-04-18T21:29:41.533Z,11.32
2023-04-18T21:32:38.382Z,9.05
2023-04-18T21:35:35.269Z,10.45
2023-04-18T21:38:32.068Z,11.00
2023-04-18T21:41:29.848Z,7.07
2023-04-18T21:44:26.661Z,7.25
2023-04-18T21:47:23.550Z,8.93
2023-04-18T21:50:20.581Z,7.72
2023-04-18T21:53:17.372Z,8.27
2023-04-18T21:56:14.282Z,8.07
2023-04-18T21:59:11.138Z,6.68
2023-04-18T22:02:08.557Z,7.53
2023-04-18T22:05:05.893Z,6.93
2023-04-18T22:08:03.233Z,6.07
2023-04-18T22:11:00.334Z,5.38
2023-04-18T22:13:58.125Z,6.43
2023-04-18T22:16:55.071Z,5.65
2023-04-18T22:19:53.615Z,3.80
2023-04-18T22:22:50.545Z,3.60
2023-04-18T22:25:47.746Z,4.45
2023-04-18T22:28:45.105Z,4.25
2023-04-18T22:31:43.322Z,4.18
2023-04-18T22:34:40.567Z,4.35
2023-04-18T22:37:37.476Z,5.25
2023-04-18T22:40:34.322Z,5.65
2023-04-18T22:43:31.260Z,4.93
2023-04-18T22:46:28.220Z,5.30
2023-04-18T22:49:25.120Z,8.57
2023-04-18T22:52:24.753Z,10.20
2023-04-18T22:55:21.717Z,10.55
2023-04-18T22:58:18.541Z,13.02
2023-04-18T23:01:15.633Z,14.35
2023-04-18T23:04:12.597Z,15.10
2023-04-18T23:07:09.520Z,15.88
2023-04-18T23:10:07.426Z,15.57
2023-04-18T23:13:04.273Z,15.80
2023-04-18T23:16:01.195Z,15.50
2023-04-18T23:18:58.035Z,16.45
2023-04-18T23:21:54.850Z,14.93
2023-04-18T23:24:51.832Z,16.55
2023-04-18T23:27:48.690Z,14.68
2023-04-18T23:30:45.566Z,13.80
2023-04-18T23:33:42.394Z,13.77
2023-04-18T23:36:40.408Z,11.02
2023-04-18T23:39:37.272Z,10.70
2023-04-18T23:42:34.773Z,10.05
2023-04-18T23:45:31.605Z,11.00
2023-04-18T23:48:28.514Z,8.45
2023-04-18T23:51:26.154Z,9.13
2023-04-18T23:54:22.986Z,12.95
2023-04-18T23:57:19.807Z,11.60
